createdAt,value
2017-05-13T00:01:00.949Z,0
2017-05-13T00:02:23.100Z,0
2017-05-13T00:03:44.947Z,0
2017-05-13T00:05:07.741Z,0
2017-05-13T00:06:29.272Z,0
2017-05-13T00:07:51.791Z,0
2017-05-13T00:09:13.953Z,0
2017-05-13T00:10:35.789Z,0
2017-05-13T00:11:57.649Z,0
2017-05-13T00:13:19.803Z,0
2017-05-13T00:14:42.001Z,0
2017-05-13T00:16:04.500Z,0
2017-05-13T00:17:26.329Z,0
2017-05-13T00:18:47.871Z,0
2017-05-13T00:20:10.011Z,0
2017-05-13T00:21:32.781Z,0
2017-05-13T00:22:54.662Z,0
2017-05-13T00:24:16.249Z,0
2017-05-13T00:25:37.766Z,0
2017-05-13T00:26:59.931Z,0
2017-05-13T00:28:22.433Z,0
2017-05-13T00:29:44.580Z,0
2017-05-13T00:31:06.415Z,0
2017-05-13T00:32:28.540Z,0
2017-05-13T00:33:50.805Z,0
2017-05-13T00:35:12.959Z,0
2017-05-13T00:36:35.174Z,0
2017-05-13T00:37:57.620Z,0
2017-05-13T00:39:19.784Z,0
2017-05-13T00:40:41.301Z,0
2017-05-13T00:42:03.872Z,0
2017-05-13T00:43:25.980Z,0
2017-05-13T00:44:47.191Z,0
2017-05-13T00:46:09.362Z,0
2017-05-13T00:47:31.512Z,0
2017-05-13T00:48:54.322Z,0
2017-05-13T00:50:16.140Z,0
2017-05-13T00:51:37.700Z,0
2017-05-13T00:52:59.531Z,0
2017-05-13T00:54:21.993Z,0
2017-05-13T00:55:43.523Z,0
2017-05-13T00:57:05.173Z,0
2017-05-13T00:58:27.655Z,0
2017-05-13T00:59:50.060Z,0
2017-05-13T01:01:11.890Z,0
2017-05-13T01:02:34.040Z,0
2017-05-13T01:03:56.291Z,0
2017-05-13T01:05:18.723Z,0
2017-05-13T01:06:40.870Z,0
2017-05-13T01:08:02.762Z,0
2017-05-13T01:09:24.591Z,0
2017-05-13T01:10:47.230Z,0
2017-05-13T01:12:08.750Z,0
2017-05-13T01:13:30.919Z,0
2017-05-13T01:14:53.391Z,0
2017-05-13T01:16:16.205Z,0
2017-05-13T01:17:38.097Z,0
2017-05-13T01:18:59.930Z,0
2017-05-13T01:20:21.859Z,0
2017-05-13T01:21:44.324Z,0
2017-05-13T01:23:05.846Z,0
2017-05-13T01:24:27.681Z,0
2017-05-13T01:25:49.191Z,0
2017-05-13T01:27:11.670Z,0
2017-05-13T01:28:34.157Z,0
2017-05-13T01:29:56.630Z,0
2017-05-13T01:31:18.269Z,0
2017-05-13T01:32:40.078Z,0
2017-05-13T01:34:02.550Z,0
2017-05-13T01:35:24.760Z,0
2017-05-13T01:36:46.968Z,0
2017-05-13T01:38:09.148Z,0
2017-05-13T01:39:30.688Z,0
2017-05-13T01:40:52.834Z,0
2017-05-13T01:42:14.770Z,0
2017-05-13T01:43:36.963Z,0
2017-05-13T01:44:59.170Z,0
2017-05-13T01:46:20.999Z,0
2017-05-13T01:47:43.154Z,0
2017-05-13T01:49:05.639Z,0
2017-05-13T01:50:27.479Z,0
2017-05-13T01:51:49.032Z,0
2017-05-13T01:53:10.889Z,0
2017-05-13T01:54:33.029Z,0
2017-05-13T01:55:54.570Z,0
2017-05-13T01:57:16.717Z,0
2017-05-13T01:58:38.889Z,0
2017-05-13T02:00:01.077Z,0
2017-05-13T02:01:22.908Z,0
2017-05-13T02:02:45.190Z,0
2017-05-13T02:04:07.026Z,0
2017-05-13T02:05:28.563Z,0
2017-05-13T02:06:50.393Z,0
2017-05-13T02:08:12.229Z,0
2017-05-13T02:09:34.519Z,0
2017-05-13T02:10:56.483Z,0
2017-05-13T02:12:18.042Z,0
2017-05-13T02:13:39.573Z,0
2017-05-13T02:15:01.132Z,0
2017-05-13T02:16:23.908Z,0
2017-05-13T02:17:45.769Z,0
2017-05-13T02:19:08.228Z,0
2017-05-13T02:20:29.747Z,0
2017-05-13T02:21:51.559Z,0
2017-05-13T02:23:13.089Z,0
2017-05-13T02:24:35.237Z,0
2017-05-13T02:25:57.413Z,0
2017-05-13T02:27:19.555Z,0
2017-05-13T02:28:41.379Z,0
2017-05-13T02:30:02.901Z,0
2017-05-13T02:31:24.480Z,0
2017-05-13T02:32:47.206Z,0
2017-05-13T02:34:09.362Z,0
2017-05-13T02:35:31.208Z,0
2017-05-13T02:36:53.050Z,0
2017-05-13T02:38:14.591Z,0
2017-05-13T02:39:36.873Z,0
2017-05-13T02:40:59.058Z,0
2017-05-13T02:42:21.193Z,0
2017-05-13T02:43:43.018Z,0
2017-05-13T02:45:05.217Z,0
2017-05-13T02:46:26.414Z,0
2017-05-13T02:47:48.250Z,0
2017-05-13T02:49:10.109Z,0
2017-05-13T02:50:31.725Z,0
2017-05-13T02:51:52.934Z,0
2017-05-13T02:53:14.760Z,0
2017-05-13T02:54:36.989Z,0
2017-05-13T02:55:58.859Z,0
2017-05-13T02:57:20.698Z,0
2017-05-13T02:58:42.577Z,0
2017-05-13T03:00:05.472Z,0
2017-05-13T03:01:26.977Z,0
2017-05-13T03:02:48.949Z,0
2017-05-13T03:04:10.778Z,0
2017-05-13T03:05:32.855Z,0
2017-05-13T03:06:54.378Z,0
2017-05-13T03:08:15.908Z,0
2017-05-13T03:09:38.135Z,0
2017-05-13T03:11:00.010Z,0
2017-05-13T03:12:22.144Z,0
2017-05-13T03:13:44.347Z,0
2017-05-13T03:15:06.166Z,0
2017-05-13T03:16:28.988Z,0
2017-05-13T03:17:50.832Z,0
2017-05-13T03:19:12.423Z,0
2017-05-13T03:20:34.037Z,0
2017-05-13T03:21:55.530Z,0
2017-05-13T03:23:17.685Z,0
2017-05-13T03:24:39.511Z,5
2017-05-13T03:26:01.037Z,5
2017-05-13T03:27:23.947Z,5
2017-05-13T03:28:45.510Z,5
2017-05-13T03:30:06.738Z,5
2017-05-13T03:31:28.305Z,10
2017-05-13T03:32:50.433Z,10
2017-05-13T03:34:12.372Z,10
2017-05-13T03:35:33.891Z,15
2017-05-13T03:36:55.417Z,15
2017-05-13T03:38:17.231Z,15
2017-05-13T03:39:38.740Z,20
2017-05-13T03:40:59.922Z,20
2017-05-13T03:42:21.423Z,20
2017-05-13T03:43:43.559Z,25
2017-05-13T03:45:05.698Z,25
2017-05-13T03:46:27.268Z,30
2017-05-13T03:47:49.467Z,30
2017-05-13T03:49:11.637Z,30
2017-05-13T03:50:32.830Z,35
2017-05-13T03:51:55.004Z,35
2017-05-13T03:53:16.519Z,35
2017-05-13T03:54:39.006Z,35
2017-05-13T03:56:00.874Z,40
2017-05-13T03:57:22.417Z,40
2017-05-13T03:58:43.642Z,45
2017-05-13T04:00:06.507Z,45
2017-05-13T04:01:28.581Z,45
2017-05-13T04:02:50.846Z,50
2017-05-13T04:04:12.697Z,55
2017-05-13T04:05:34.767Z,60
2017-05-13T04:06:56.608Z,65
2017-05-13T04:08:19.078Z,70
2017-05-13T04:09:40.599Z,70
2017-05-13T04:11:02.724Z,75
2017-05-13T04:12:24.653Z,75
2017-05-13T04:13:46.809Z,80
2017-05-13T04:15:08.368Z,85
2017-05-13T04:16:30.829Z,90
2017-05-13T04:17:53.022Z,90
2017-05-13T04:19:15.208Z,95
2017-05-13T04:20:36.426Z,100
2017-05-13T04:21:58.620Z,100
2017-05-13T04:23:20.475Z,110
2017-05-13T04:24:42.634Z,110
2017-05-13T04:26:04.550Z,115
2017-05-13T04:27:26.488Z,115
2017-05-13T04:28:48.998Z,115
2017-05-13T04:30:11.257Z,115
2017-05-13T04:31:32.826Z,120
2017-05-13T04:32:55.637Z,125
2017-05-13T04:34:17.567Z,125
2017-05-13T04:35:38.757Z,135
2017-05-13T04:37:01.221Z,140
2017-05-13T04:38:23.509Z,150
2017-05-13T04:39:45.767Z,155
2017-05-13T04:41:07.617Z,155
2017-05-13T04:42:30.098Z,160
2017-05-13T04:43:52.920Z,165
2017-05-13T04:45:15.066Z,170
2017-05-13T04:46:37.227Z,175
2017-05-13T04:47:59.093Z,180
2017-05-13T04:49:21.649Z,180
2017-05-13T04:50:43.187Z,180
2017-05-13T04:52:05.346Z,180
2017-05-13T04:53:27.887Z,175
2017-05-13T04:54:49.407Z,175
2017-05-13T04:56:10.928Z,175
2017-05-13T04:57:33.482Z,175
2017-05-13T04:58:55.621Z,180
2017-05-13T05:00:17.119Z,180
2017-05-13T05:01:39.265Z,180
2017-05-13T05:03:00.778Z,185
2017-05-13T05:04:21.747Z,195
2017-05-13T05:05:43.517Z,210
2017-05-13T05:07:05.674Z,210
2017-05-13T05:08:27.498Z,210
2017-05-13T05:09:49.774Z,220
2017-05-13T05:11:11.907Z,230
2017-05-13T05:12:34.096Z,230
2017-05-13T05:13:55.979Z,230
2017-05-13T05:15:18.137Z,225
2017-05-13T05:16:39.954Z,220
2017-05-13T05:18:02.140Z,215
2017-05-13T05:19:24.273Z,205
2017-05-13T05:20:45.789Z,200
2017-05-13T05:22:07.697Z,195
2017-05-13T05:23:30.078Z,190
2017-05-13T05:24:52.211Z,185
2017-05-13T05:26:13.739Z,180
2017-05-13T05:27:36.261Z,175
2017-05-13T05:28:58.418Z,170
2017-05-13T05:30:20.255Z,165
2017-05-13T05:31:42.108Z,160
2017-05-13T05:33:04.567Z,155
2017-05-13T05:34:25.788Z,150
2017-05-13T05:35:47.617Z,145
2017-05-13T05:37:09.510Z,145
2017-05-13T05:38:32.327Z,145
2017-05-13T05:39:53.517Z,145
2017-05-13T05:41:15.337Z,160
2017-05-13T05:42:37.601Z,155
2017-05-13T05:43:59.740Z,160
2017-05-13T05:45:22.404Z,170
2017-05-13T05:46:43.930Z,175
2017-05-13T05:48:06.069Z,185
2017-05-13T05:49:28.267Z,190
2017-05-13T05:50:50.760Z,200
2017-05-13T05:52:12.599Z,215
2017-05-13T05:53:34.460Z,235
2017-05-13T05:54:57.008Z,250
2017-05-13T05:56:19.470Z,270
2017-05-13T05:57:41.300Z,285
2017-05-13T05:59:03.566Z,300
2017-05-13T06:00:26.408Z,315
2017-05-13T06:01:48.564Z,325
2017-05-13T06:03:10.699Z,345
2017-05-13T06:04:32.971Z,345
2017-05-13T06:05:55.117Z,350
2017-05-13T06:07:17.012Z,380
2017-05-13T06:08:38.861Z,475
2017-05-13T06:10:01.028Z,480
2017-05-13T06:11:22.869Z,555
2017-05-13T06:12:45.448Z,620
2017-05-13T06:14:07.336Z,625
2017-05-13T06:15:29.736Z,675
2017-05-13T06:16:51.888Z,640
2017-05-13T06:18:13.737Z,530
2017-05-13T06:19:35.888Z,490
2017-05-13T06:20:58.368Z,470
2017-05-13T06:22:20.768Z,465
2017-05-13T06:23:43.254Z,460
2017-05-13T06:25:05.411Z,420
2017-05-13T06:26:27.579Z,415
2017-05-13T06:27:49.196Z,455
2017-05-13T06:29:11.423Z,445
2017-05-13T06:30:33.792Z,410
2017-05-13T06:31:55.952Z,400
2017-05-13T06:33:18.797Z,385
2017-05-13T06:34:40.676Z,385
2017-05-13T06:36:02.538Z,380
2017-05-13T06:37:24.407Z,385
2017-05-13T06:38:46.620Z,400
2017-05-13T06:40:08.901Z,415
2017-05-13T06:41:30.551Z,425
2017-05-13T06:42:53.079Z,425
2017-05-13T06:44:15.520Z,385
2017-05-13T06:45:37.738Z,335
2017-05-13T06:46:59.919Z,300
2017-05-13T06:48:21.758Z,280
2017-05-13T06:49:44.560Z,275
2017-05-13T06:51:06.851Z,280
2017-05-13T06:52:28.421Z,285
2017-05-13T06:53:50.588Z,290
2017-05-13T06:55:12.098Z,285
2017-05-13T06:56:33.952Z,280
2017-05-13T06:57:56.459Z,285
2017-05-13T06:59:18.291Z,280
2017-05-13T07:00:40.749Z,285
2017-05-13T07:02:02.921Z,300
2017-05-13T07:03:25.414Z,360
2017-05-13T07:04:47.960Z,400
2017-05-13T07:06:10.108Z,405
2017-05-13T07:07:32.780Z,410
2017-05-13T07:08:54.378Z,410
2017-05-13T07:10:16.007Z,420
2017-05-13T07:11:38.477Z,415
2017-05-13T07:13:00.703Z,425
2017-05-13T07:14:22.568Z,425
2017-05-13T07:15:44.409Z,425
2017-05-13T07:17:06.378Z,425
2017-05-13T07:18:28.551Z,425
2017-05-13T07:19:50.730Z,430
2017-05-13T07:21:13.230Z,435
2017-05-13T07:22:35.371Z,445
2017-05-13T07:23:57.872Z,455
2017-05-13T07:25:20.050Z,455
2017-05-13T07:26:42.247Z,450
2017-05-13T07:28:04.667Z,450
2017-05-13T07:29:26.207Z,445
2017-05-13T07:30:48.404Z,445
2017-05-13T07:32:10.890Z,435
2017-05-13T07:33:33.348Z,430
2017-05-13T07:34:55.549Z,435
2017-05-13T07:36:18.334Z,435
2017-05-13T07:37:40.196Z,430
2017-05-13T07:39:02.659Z,415
2017-05-13T07:40:25.188Z,405
2017-05-13T07:41:47.693Z,380
2017-05-13T07:43:10.200Z,360
2017-05-13T07:44:32.658Z,350
2017-05-13T07:45:54.903Z,335
2017-05-13T07:47:16.861Z,320
2017-05-13T07:48:38.820Z,305
2017-05-13T07:50:01.611Z,295
2017-05-13T07:51:24.181Z,280
2017-05-13T07:52:46.667Z,270
2017-05-13T07:54:08.947Z,260
2017-05-13T07:55:31.789Z,255
2017-05-13T07:56:54.280Z,250
2017-05-13T07:58:16.457Z,245
2017-05-13T07:59:39.056Z,250
2017-05-13T08:01:01.517Z,245
2017-05-13T08:02:24.032Z,250
2017-05-13T08:03:46.536Z,250
2017-05-13T08:05:08.757Z,255
2017-05-13T08:06:30.644Z,255
2017-05-13T08:07:53.181Z,255
2017-05-13T08:09:15.714Z,255
2017-05-13T08:10:37.786Z,255
2017-05-13T08:12:00.580Z,255
2017-05-13T08:13:22.437Z,245
2017-05-13T08:14:44.297Z,235
2017-05-13T08:16:06.137Z,230
2017-05-13T08:17:29.080Z,230
2017-05-13T08:18:50.727Z,235
2017-05-13T08:20:13.399Z,245
2017-05-13T08:21:35.636Z,260
2017-05-13T08:22:57.787Z,285
2017-05-13T08:24:20.300Z,295
2017-05-13T08:25:42.477Z,320
2017-05-13T08:27:04.937Z,345
2017-05-13T08:28:27.689Z,375
2017-05-13T08:29:49.538Z,410
2017-05-13T08:31:11.080Z,435
2017-05-13T08:32:33.310Z,450
2017-05-13T08:33:55.887Z,465
2017-05-13T08:35:18.077Z,475
2017-05-13T08:36:39.937Z,485
2017-05-13T08:38:01.775Z,490
2017-05-13T08:39:24.445Z,485
2017-05-13T08:40:46.926Z,475
2017-05-13T08:42:08.299Z,475
2017-05-13T08:43:30.136Z,470
2017-05-13T08:44:52.304Z,470
2017-05-13T08:46:14.626Z,465
2017-05-13T08:47:36.456Z,465
2017-05-13T08:48:58.731Z,470
2017-05-13T08:50:21.206Z,490
2017-05-13T08:51:43.405Z,505
2017-05-13T08:53:05.278Z,525
2017-05-13T08:54:26.876Z,530
2017-05-13T08:55:48.746Z,535
2017-05-13T08:57:10.927Z,545
2017-05-13T08:58:33.455Z,530
2017-05-13T08:59:55.949Z,510
2017-05-13T09:01:18.767Z,510
2017-05-13T09:02:40.926Z,515
2017-05-13T09:04:35.040Z,485
2017-05-13T09:05:56.928Z,475
2017-05-13T09:07:19.402Z,475
2017-05-13T09:08:41.269Z,480
2017-05-13T09:10:03.756Z,495
2017-05-13T09:11:26.244Z,485
2017-05-13T09:12:47.776Z,485
2017-05-13T09:14:10.078Z,500
2017-05-13T09:15:32.564Z,520
2017-05-13T09:16:54.418Z,530
2017-05-13T09:18:16.605Z,540
2017-05-13T09:19:38.458Z,545
2017-05-13T09:20:59.997Z,550
2017-05-13T09:22:22.106Z,550
2017-05-13T09:23:43.690Z,545
2017-05-13T09:25:05.241Z,530
2017-05-13T09:26:27.736Z,510
2017-05-13T09:27:50.586Z,500
2017-05-13T09:29:12.450Z,505
2017-05-13T09:30:34.929Z,500
2017-05-13T09:31:57.096Z,500
2017-05-13T09:33:19.996Z,485
2017-05-13T09:34:42.245Z,480
2017-05-13T09:36:04.457Z,485
2017-05-13T09:37:26.645Z,500
2017-05-13T09:38:48.926Z,520
2017-05-13T09:40:10.804Z,545
2017-05-13T09:41:32.978Z,570
2017-05-13T09:42:54.878Z,575
2017-05-13T09:44:17.088Z,580
2017-05-13T09:45:38.998Z,575
2017-05-13T09:47:01.178Z,550
2017-05-13T09:48:22.725Z,525
2017-05-13T09:49:44.908Z,500
2017-05-13T09:51:07.408Z,480
2017-05-13T09:52:29.943Z,485
2017-05-13T09:53:52.134Z,475
2017-05-13T09:55:14.594Z,445
2017-05-13T09:56:36.498Z,435
2017-05-13T09:57:58.647Z,440
2017-05-13T09:59:20.836Z,435
2017-05-13T10:00:43.156Z,425
2017-05-13T10:02:05.666Z,410
2017-05-13T10:03:27.578Z,395
2017-05-13T10:04:49.795Z,390
2017-05-13T10:06:11.754Z,370
2017-05-13T10:07:33.950Z,345
2017-05-13T10:08:56.196Z,325
2017-05-13T10:10:18.377Z,315
2017-05-13T10:11:41.201Z,320
2017-05-13T10:13:03.696Z,330
2017-05-13T10:14:25.906Z,360
2017-05-13T10:15:47.758Z,410
2017-05-13T10:17:09.598Z,470
2017-05-13T10:18:31.805Z,525
2017-05-13T10:19:53.993Z,530
2017-05-13T10:21:16.229Z,525
2017-05-13T10:22:39.032Z,495
2017-05-13T10:24:00.921Z,495
2017-05-13T10:25:22.554Z,490
2017-05-13T10:26:45.043Z,485
2017-05-13T10:28:07.301Z,480
2017-05-13T10:29:29.493Z,495
2017-05-13T10:30:51.428Z,480
2017-05-13T10:32:13.295Z,505
2017-05-13T10:33:35.766Z,540
2017-05-13T10:34:58.038Z,560
2017-05-13T10:36:19.957Z,540
2017-05-13T10:37:42.205Z,455
2017-05-13T10:39:04.965Z,395
2017-05-13T10:40:26.877Z,385
2017-05-13T10:41:49.227Z,420
2017-05-13T10:43:11.497Z,430
2017-05-13T10:44:34.008Z,400
2017-05-13T10:45:56.520Z,365
2017-05-13T10:47:19.125Z,360
2017-05-13T10:48:41.632Z,360
2017-05-13T10:50:03.847Z,325
2017-05-13T10:51:25.396Z,310
2017-05-13T10:52:47.618Z,325
2017-05-13T10:54:09.569Z,315
2017-05-13T10:55:32.106Z,340
2017-05-13T10:56:54.698Z,320
2017-05-13T10:58:16.286Z,340
2017-05-13T10:59:38.831Z,360
2017-05-13T11:01:01.349Z,390
2017-05-13T11:02:23.536Z,420
2017-05-13T11:03:45.388Z,465
2017-05-13T11:05:07.571Z,465
2017-05-13T11:06:30.094Z,450
2017-05-13T11:07:52.488Z,430
2017-05-13T11:09:15.032Z,415
2017-05-13T11:10:37.246Z,415
2017-05-13T11:11:59.416Z,385
2017-05-13T11:13:21.704Z,400
2017-05-13T11:14:44.015Z,430
2017-05-13T11:16:05.893Z,420
2017-05-13T11:17:28.103Z,390
2017-05-13T11:18:50.603Z,355
2017-05-13T11:20:12.518Z,340
2017-05-13T11:21:34.991Z,325
2017-05-13T11:22:57.690Z,360
2017-05-13T11:24:19.855Z,340
2017-05-13T11:25:42.028Z,315
2017-05-13T11:27:04.632Z,295
2017-05-13T11:28:27.587Z,275
2017-05-13T11:29:49.758Z,270
2017-05-13T11:31:12.104Z,355
2017-05-13T11:32:34.587Z,335
2017-05-13T11:33:56.986Z,330
2017-05-13T11:35:50.606Z,390
2017-05-13T11:37:12.853Z,425
2017-05-13T11:38:34.396Z,480
2017-05-13T11:39:57.012Z,525
2017-05-13T11:41:19.642Z,560
2017-05-13T11:42:41.818Z,560
2017-05-13T11:44:04.401Z,570
2017-05-13T11:45:26.668Z,600
2017-05-13T11:46:49.176Z,620
2017-05-13T11:48:11.489Z,595
2017-05-13T11:49:33.328Z,565
2017-05-13T11:50:55.898Z,520
2017-05-13T11:52:18.167Z,500
2017-05-13T11:53:40.336Z,510
2017-05-13T11:55:02.283Z,535
2017-05-13T11:56:24.798Z,575
2017-05-13T11:57:46.956Z,610
2017-05-13T11:59:08.838Z,590
2017-05-13T12:00:31.046Z,590
2017-05-13T12:01:53.494Z,565
2017-05-13T12:03:14.731Z,550
2017-05-13T12:04:37.225Z,500
2017-05-13T12:05:59.075Z,430
2017-05-13T12:07:21.720Z,405
2017-05-13T12:08:43.680Z,395
2017-05-13T12:10:05.935Z,400
2017-05-13T12:11:28.116Z,405
2017-05-13T12:12:49.937Z,415
2017-05-13T12:14:11.847Z,460
2017-05-13T12:15:33.739Z,500
2017-05-13T12:16:56.337Z,520
2017-05-13T12:18:18.506Z,515
2017-05-13T12:19:41.017Z,510
2017-05-13T12:21:02.879Z,505
2017-05-13T12:22:25.365Z,485
2017-05-13T12:23:47.986Z,480
2017-05-13T12:25:10.506Z,460
2017-05-13T12:26:32.056Z,475
2017-05-13T12:27:54.227Z,485
2017-05-13T12:29:16.746Z,460
2017-05-13T12:30:38.987Z,440
2017-05-13T12:32:00.917Z,410
2017-05-13T12:33:22.810Z,410
2017-05-13T12:34:44.289Z,425
2017-05-13T12:36:06.245Z,455
2017-05-13T12:37:28.897Z,485
2017-05-13T12:38:50.740Z,505
2017-05-13T12:40:13.745Z,490
2017-05-13T12:41:35.598Z,450
2017-05-13T12:42:57.825Z,410
2017-05-13T12:44:19.987Z,390
2017-05-13T12:45:42.237Z,385
2017-05-13T12:47:04.085Z,395
2017-05-13T12:48:25.956Z,415
2017-05-13T12:49:47.556Z,435
2017-05-13T12:51:09.403Z,450
2017-05-13T12:52:31.703Z,450
2017-05-13T12:53:53.912Z,410
2017-05-13T12:55:16.422Z,370
2017-05-13T12:56:38.636Z,350
2017-05-13T12:58:00.577Z,325
2017-05-13T12:59:23.076Z,310
2017-05-13T13:00:44.984Z,290
2017-05-13T13:02:07.539Z,270
2017-05-13T13:03:30.009Z,265
2017-05-13T13:04:52.185Z,260
2017-05-13T13:06:14.740Z,255
2017-05-13T13:07:37.236Z,250
2017-05-13T13:08:59.417Z,240
2017-05-13T13:10:21.605Z,235
2017-05-13T13:11:43.463Z,230
2017-05-13T13:13:05.363Z,225
2017-05-13T13:14:27.544Z,215
2017-05-13T13:15:49.397Z,210
2017-05-13T13:17:11.580Z,205
2017-05-13T13:18:33.757Z,195
2017-05-13T13:19:55.942Z,195
2017-05-13T13:21:18.115Z,190
2017-05-13T13:22:39.986Z,190
2017-05-13T13:24:01.997Z,180
2017-05-13T13:25:24.507Z,180
2017-05-13T13:26:46.376Z,175
2017-05-13T13:28:08.863Z,185
2017-05-13T13:29:31.708Z,195
2017-05-13T13:30:55.172Z,200
2017-05-13T13:32:17.361Z,195
2017-05-13T13:33:39.540Z,190
2017-05-13T13:35:02.059Z,185
2017-05-13T13:36:24.618Z,170
2017-05-13T13:37:46.546Z,180
2017-05-13T13:39:08.417Z,175
2017-05-13T13:40:31.272Z,175
2017-05-13T13:41:53.536Z,175
2017-05-13T13:43:15.536Z,175
2017-05-13T13:44:37.384Z,175
2017-05-13T13:45:59.226Z,180
2017-05-13T13:47:21.087Z,180
2017-05-13T13:48:43.659Z,180
2017-05-13T13:50:06.156Z,180
2017-05-13T13:51:28.395Z,180
2017-05-13T13:52:50.563Z,180
2017-05-13T13:54:12.725Z,180
2017-05-13T13:55:34.937Z,180
2017-05-13T13:56:57.144Z,180
2017-05-13T13:58:19.204Z,195
2017-05-13T13:59:40.747Z,205
2017-05-13T14:01:02.951Z,200
2017-05-13T14:02:24.468Z,190
2017-05-13T14:03:46.350Z,180
2017-05-13T14:05:08.264Z,180
2017-05-13T14:06:30.813Z,180
2017-05-13T14:07:53.537Z,180
2017-05-13T14:09:15.696Z,180
2017-05-13T14:10:37.877Z,190
2017-05-13T14:11:59.865Z,200
2017-05-13T14:13:21.765Z,185
2017-05-13T14:14:43.710Z,195
2017-05-13T14:16:05.931Z,215
2017-05-13T14:17:28.443Z,240
2017-05-13T14:18:50.910Z,220
2017-05-13T14:20:13.081Z,210
2017-05-13T14:21:34.713Z,215
2017-05-13T14:22:56.237Z,205
2017-05-13T14:24:18.987Z,205
2017-05-13T14:25:41.475Z,230
2017-05-13T14:27:03.668Z,230
2017-05-13T14:28:25.958Z,245
2017-05-13T14:29:48.163Z,275
2017-05-13T14:31:10.559Z,295
2017-05-13T14:32:32.464Z,300
2017-05-13T14:33:53.996Z,325
2017-05-13T14:35:16.091Z,335
2017-05-13T14:36:38.305Z,345
2017-05-13T14:38:00.497Z,335
2017-05-13T14:39:22.704Z,325
2017-05-13T14:40:45.585Z,345
2017-05-13T14:42:08.106Z,345
2017-05-13T14:43:30.346Z,325
2017-05-13T14:44:52.205Z,325
2017-05-13T14:46:14.367Z,300
2017-05-13T14:47:36.866Z,290
2017-05-13T14:48:59.127Z,285
2017-05-13T14:50:21.636Z,280
2017-05-13T14:51:43.823Z,295
2017-05-13T14:53:05.846Z,315
2017-05-13T14:54:27.430Z,340
2017-05-13T14:55:49.076Z,370
2017-05-13T14:57:11.931Z,365
2017-05-13T14:58:34.437Z,350
2017-05-13T14:59:56.292Z,350
2017-05-13T15:01:18.814Z,325
2017-05-13T15:02:40.653Z,300
2017-05-13T15:04:02.169Z,290
2017-05-13T15:05:24.777Z,285
2017-05-13T15:06:46.008Z,290
2017-05-13T15:08:08.565Z,310
2017-05-13T15:09:30.427Z,330
2017-05-13T15:10:52.918Z,340
2017-05-13T15:12:15.766Z,330
2017-05-13T15:13:38.264Z,315
2017-05-13T15:15:00.913Z,310
2017-05-13T15:16:23.575Z,300
2017-05-13T15:17:45.746Z,295
2017-05-13T15:19:08.607Z,325
2017-05-13T15:20:31.118Z,335
2017-05-13T15:21:53.359Z,330
2017-05-13T15:23:15.206Z,330
2017-05-13T15:24:37.863Z,310
2017-05-13T15:25:59.725Z,300
2017-05-13T15:27:21.616Z,295
2017-05-13T15:28:43.155Z,290
2017-05-13T15:30:05.349Z,285
2017-05-13T15:31:27.869Z,240
2017-05-13T15:32:50.038Z,200
2017-05-13T15:34:12.026Z,170
2017-05-13T15:35:34.962Z,145
2017-05-13T15:36:56.808Z,135
2017-05-13T15:38:19.360Z,130
2017-05-13T15:39:41.215Z,125
2017-05-13T15:41:03.888Z,115
2017-05-13T15:42:26.517Z,115
2017-05-13T15:43:48.059Z,110
2017-05-13T15:45:10.547Z,105
2017-05-13T15:46:33.346Z,105
2017-05-13T15:47:54.910Z,105
2017-05-13T15:49:17.486Z,110
2017-05-13T15:50:39.664Z,120
2017-05-13T15:52:02.263Z,120
2017-05-13T15:53:24.097Z,125
2017-05-13T15:54:45.986Z,130
2017-05-13T15:56:08.539Z,135
2017-05-13T15:57:31.004Z,145
2017-05-13T15:58:53.199Z,165
2017-05-13T16:00:15.818Z,185
2017-05-13T16:01:38.319Z,205
2017-05-13T16:03:00.766Z,210
2017-05-13T16:04:23.267Z,200
2017-05-13T16:05:45.850Z,185
2017-05-13T16:07:08.463Z,180
2017-05-13T16:08:30.953Z,180
2017-05-13T16:09:53.436Z,180
2017-05-13T16:11:14.980Z,175
2017-05-13T16:12:36.819Z,165
2017-05-13T16:13:59.599Z,150
2017-05-13T16:15:21.471Z,140
2017-05-13T16:16:43.143Z,125
2017-05-13T16:18:04.737Z,115
2017-05-13T16:19:27.210Z,105
2017-05-13T16:20:49.380Z,95
2017-05-13T16:22:11.877Z,90
2017-05-13T16:23:34.053Z,95
2017-05-13T16:24:56.788Z,110
2017-05-13T16:26:18.637Z,140
2017-05-13T16:27:41.132Z,160
2017-05-13T16:29:03.815Z,170
2017-05-13T16:30:26.317Z,170
2017-05-13T16:31:48.592Z,180
2017-05-13T16:33:11.092Z,175
2017-05-13T16:34:33.399Z,170
2017-05-13T16:35:56.232Z,160
2017-05-13T16:37:18.108Z,120
2017-05-13T16:38:40.697Z,70
2017-05-13T16:40:02.588Z,40
2017-05-13T16:41:25.390Z,30
2017-05-13T16:42:47.877Z,20
2017-05-13T16:44:09.435Z,15
2017-05-13T16:45:30.965Z,15
2017-05-13T16:46:52.862Z,20
2017-05-13T16:48:15.164Z,25
2017-05-13T16:49:37.388Z,55
2017-05-13T16:50:59.577Z,85
2017-05-13T16:52:21.725Z,110
2017-05-13T16:53:43.609Z,150
2017-05-13T16:55:05.808Z,175
2017-05-13T16:56:28.057Z,205
2017-05-13T16:57:50.672Z,205
2017-05-13T16:59:12.538Z,215
2017-05-13T17:00:34.698Z,220
2017-05-13T17:01:57.226Z,220
2017-05-13T17:03:20.110Z,215
2017-05-13T17:04:42.648Z,215
2017-05-13T17:06:05.142Z,220
2017-05-13T17:07:27.646Z,215
2017-05-13T17:08:50.640Z,215
2017-05-13T17:10:13.191Z,220
2017-05-13T17:11:35.659Z,220
2017-05-13T17:12:57.882Z,215
2017-05-13T17:14:20.679Z,215
2017-05-13T17:15:43.193Z,215
2017-05-13T17:17:05.365Z,225
2017-05-13T17:18:27.315Z,235
2017-05-13T17:19:49.150Z,235
2017-05-13T17:21:10.789Z,240
2017-05-13T17:22:32.659Z,245
2017-05-13T17:23:55.170Z,245
2017-05-13T17:25:18.121Z,230
2017-05-13T17:26:40.288Z,215
2017-05-13T17:28:02.467Z,205
2017-05-13T17:29:24.371Z,200
2017-05-13T17:30:46.517Z,195
2017-05-13T17:32:09.029Z,190
2017-05-13T17:33:30.868Z,185
2017-05-13T17:34:53.392Z,180
2017-05-13T17:36:15.889Z,175
2017-05-13T17:37:38.057Z,175
2017-05-13T17:38:59.906Z,165
2017-05-13T17:40:22.429Z,160
2017-05-13T17:41:44.929Z,155
2017-05-13T17:43:07.430Z,145
2017-05-13T17:44:29.920Z,135
2017-05-13T17:45:52.444Z,130
2017-05-13T17:47:14.600Z,125
2017-05-13T17:48:36.837Z,120
2017-05-13T17:49:58.718Z,120
2017-05-13T17:51:20.899Z,115
2017-05-13T17:52:43.380Z,110
2017-05-13T17:54:05.910Z,110
2017-05-13T17:55:27.758Z,105
2017-05-13T17:56:49.636Z,100
2017-05-13T17:58:12.500Z,100
2017-05-13T17:59:35.027Z,95
2017-05-13T18:00:57.210Z,95
2017-05-13T18:02:19.705Z,90
2017-05-13T18:03:42.783Z,85
2017-05-13T18:05:05.320Z,85
2017-05-13T18:06:27.650Z,80
2017-05-13T18:07:49.817Z,80
2017-05-13T18:09:12.702Z,75
2017-05-13T18:10:34.728Z,75
2017-05-13T18:11:57.222Z,70
2017-05-13T18:13:19.098Z,70
2017-05-13T18:14:41.305Z,65
2017-05-13T18:16:03.506Z,65
2017-05-13T18:17:25.036Z,60
2017-05-13T18:18:47.250Z,60
2017-05-13T18:20:09.762Z,55
2017-05-13T18:21:31.941Z,55
2017-05-13T18:22:54.207Z,55
2017-05-13T18:24:15.751Z,55
2017-05-13T18:25:38.596Z,50
2017-05-13T18:27:01.132Z,50
2017-05-13T18:28:23.311Z,45
2017-05-13T18:29:45.491Z,45
2017-05-13T18:31:08.251Z,40
2017-05-13T18:32:30.108Z,35
2017-05-13T18:33:52.032Z,35
2017-05-13T18:35:14.578Z,30
2017-05-13T18:36:37.160Z,25
2017-05-13T18:37:59.049Z,20
2017-05-13T18:39:21.717Z,20
2017-05-13T18:40:44.237Z,15
2017-05-13T18:42:06.785Z,10
2017-05-13T18:43:29.289Z,10
2017-05-13T18:44:51.820Z,5
2017-05-13T18:46:46.680Z,5
2017-05-13T18:48:09.194Z,5
2017-05-13T18:49:31.716Z,5
2017-05-13T18:50:53.889Z,0
2017-05-13T18:52:16.579Z,0
2017-05-13T18:53:39.133Z,0
2017-05-13T18:55:01.309Z,0
2017-05-13T18:56:23.170Z,0
2017-05-13T18:57:46.280Z,0
2017-05-13T18:59:08.468Z,0
2017-05-13T19:00:31.212Z,0
2017-05-13T19:01:53.823Z,0
2017-05-13T19:03:16.729Z,0
2017-05-13T19:04:38.656Z,0
2017-05-13T19:06:01.211Z,0
2017-05-13T19:07:23.411Z,0
2017-05-13T19:08:45.982Z,0
2017-05-13T19:10:08.506Z,0
2017-05-13T19:11:30.707Z,0
2017-05-13T19:12:52.630Z,0
2017-05-13T19:14:15.103Z,0